createdAt,value
2023-04-17T00:01:05.369Z,44.65
2023-04-17T00:03:32.164Z,47.85
2023-04-17T00:05:58.886Z,44.97
2023-04-17T00:08:25.341Z,41.60
2023-04-17T00:11:00.677Z,44.20
2023-04-17T00:13:33.309Z,39.28
2023-04-17T00:15:59.883Z,45.10
2023-04-17T00:18:26.432Z,49.33
2023-04-17T00:20:53.657Z,48.03
2023-04-17T00:23:20.496Z,43.95
2023-04-17T00:25:47.062Z,45.08
2023-04-17T00:28:13.493Z,47.05
2023-04-17T00:30:39.971Z,44.60
2023-04-17T00:33:06.446Z,44.22
2023-04-17T00:35:32.938Z,38.25
2023-04-17T00:37:59.466Z,40.85
2023-04-17T00:40:26.050Z,46.28
2023-04-17T00:42:56.075Z,44.20
2023-04-17T00:45:22.558Z,46.10
2023-04-17T00:47:49.719Z,43.20
2023-04-17T00:50:16.396Z,47.17
2023-04-17T00:52:44.141Z,41.17
2023-04-17T00:55:10.963Z,45.25
2023-04-17T00:57:37.428Z,37.92
2023-04-17T01:00:04.532Z,44.40
2023-04-17T01:02:31.249Z,44.13
2023-04-17T01:04:57.867Z,47.53
2023-04-17T01:07:24.360Z,52.80
2023-04-17T01:09:51.029Z,50.65
2023-04-17T01:12:21.812Z,53.47
2023-04-17T01:14:55.960Z,45.85
2023-04-17T01:17:23.453Z,50.25
2023-04-17T01:19:50.634Z,47.47
2023-04-17T01:22:17.298Z,47.58
2023-04-17T01:24:44.337Z,46.42
2023-04-17T01:27:13.696Z,46.53
2023-04-17T01:29:41.294Z,43.25
2023-04-17T01:32:08.089Z,42.22
2023-04-17T01:34:37.316Z,46.15
2023-04-17T01:37:04.285Z,44.60
2023-04-17T01:39:30.742Z,49.42
2023-04-17T01:41:57.207Z,41.50
2023-04-17T01:44:23.779Z,48.70
2023-04-17T01:46:51.174Z,48.58
2023-04-17T01:49:17.670Z,44.30
2023-04-17T01:51:44.198Z,47.95
2023-04-17T01:54:10.820Z,49.17
2023-04-17T01:56:37.328Z,43.65
2023-04-17T01:59:03.834Z,45.97
2023-04-17T02:01:31.095Z,44.28
2023-04-17T02:03:57.855Z,43.00
2023-04-17T02:06:24.894Z,43.85
2023-04-17T02:08:51.402Z,46.60
2023-04-17T02:11:18.392Z,40.33
2023-04-17T02:13:44.867Z,40.72
2023-04-17T02:16:12.528Z,47.08
2023-04-17T02:18:40.730Z,43.25
2023-04-17T02:21:10.355Z,44.08
2023-04-17T02:23:36.834Z,45.38
2023-04-17T02:26:03.500Z,41.88
2023-04-17T02:28:30.073Z,41.72
2023-04-17T02:30:56.696Z,46.03
2023-04-17T02:33:26.129Z,42.63
2023-04-17T02:35:52.643Z,43.80
2023-04-17T02:38:19.164Z,41.35
2023-04-17T02:40:45.703Z,44.38
2023-04-17T02:43:14.047Z,40.90
2023-04-17T02:45:40.511Z,44.85
2023-04-17T02:48:07.112Z,41.88
2023-04-17T02:50:33.960Z,42.92
2023-04-17T02:53:00.398Z,40.53
2023-04-17T02:55:27.140Z,42.58
2023-04-17T02:57:53.634Z,44.90
2023-04-17T03:00:20.750Z,42.88
2023-04-17T03:02:47.818Z,44.83
2023-04-17T03:05:16.489Z,41.53
2023-04-17T03:07:43.022Z,43.42
2023-04-17T03:10:09.701Z,42.13
2023-04-17T03:12:36.326Z,46.03
2023-04-17T03:15:03.013Z,47.67
2023-04-17T03:17:29.526Z,46.45
2023-04-17T03:19:56.033Z,47.38
2023-04-17T03:22:22.475Z,44.13
2023-04-17T03:24:48.976Z,41.58
2023-04-17T03:27:15.630Z,44.42
2023-04-17T03:29:44.748Z,45.38
2023-04-17T03:32:11.217Z,45.00
2023-04-17T03:34:38.229Z,41.47
2023-04-17T03:37:04.659Z,45.85
2023-04-17T03:39:31.077Z,48.55
2023-04-17T03:41:57.571Z,43.40
2023-04-17T03:44:24.029Z,43.33
2023-04-17T03:46:50.561Z,47.88
2023-04-17T03:49:17.070Z,44.03
2023-04-17T03:51:43.777Z,48.10
2023-04-17T03:54:10.309Z,48.08
2023-04-17T03:56:36.827Z,49.15
2023-04-17T03:59:04.482Z,46.13
2023-04-17T04:01:32.721Z,48.53
2023-04-17T04:04:00.024Z,53.08
2023-04-17T04:06:29.790Z,51.10
2023-04-17T04:08:56.999Z,51.17
2023-04-17T04:11:23.523Z,47.55
2023-04-17T04:13:50.073Z,50.45
2023-04-17T04:16:16.666Z,58.95
2023-04-17T04:18:43.345Z,56.05
2023-04-17T04:21:12.057Z,52.58
2023-04-17T04:23:41.197Z,53.60
2023-04-17T04:26:07.920Z,50.72
2023-04-17T04:28:34.554Z,54.78
2023-04-17T04:31:02.531Z,54.10
2023-04-17T04:33:29.532Z,52.55
2023-04-17T04:35:56.158Z,52.88
2023-04-17T04:38:29.920Z,54.25
2023-04-17T04:41:06.088Z,59.97
2023-04-17T04:43:33.603Z,58.38
2023-04-17T04:46:00.105Z,52.42
2023-04-17T04:48:26.639Z,53.05
2023-04-17T04:50:53.111Z,58.35
2023-04-17T04:53:19.538Z,52.25
2023-04-17T04:55:46.048Z,55.35
2023-04-17T04:58:12.690Z,57.47
2023-04-17T05:00:39.499Z,58.30
2023-04-17T05:03:06.682Z,56.05
2023-04-17T05:05:33.272Z,55.10
2023-04-17T05:07:59.739Z,60.22
2023-04-17T05:10:26.374Z,58.97
2023-04-17T05:12:52.812Z,60.33
2023-04-17T05:15:19.313Z,57.85
2023-04-17T05:17:45.843Z,54.17
2023-04-17T05:20:12.683Z,57.78
2023-04-17T05:22:39.178Z,57.22
2023-04-17T05:25:05.853Z,54.58
2023-04-17T05:27:32.410Z,54.40
2023-04-17T05:29:58.846Z,60.25
2023-04-17T05:32:25.415Z,57.65
2023-04-17T05:34:52.312Z,58.70
2023-04-17T05:37:19.010Z,59.92
2023-04-17T05:39:45.445Z,57.47
2023-04-17T05:42:11.841Z,57.30
2023-04-17T05:44:39.382Z,56.65
2023-04-17T05:47:06.141Z,59.38
2023-04-17T05:49:32.592Z,57.50
2023-04-17T05:51:59.146Z,54.83
2023-04-17T05:54:27.914Z,57.15
2023-04-17T05:56:54.456Z,61.13
2023-04-17T05:59:21.078Z,60.03
2023-04-17T06:01:47.512Z,56.65
2023-04-17T06:04:14.728Z,60.80
2023-04-17T06:06:41.521Z,52.75
2023-04-17T06:09:09.511Z,54.88
2023-04-17T06:11:36.015Z,51.70
2023-04-17T06:14:02.571Z,58.20
2023-04-17T06:16:29.063Z,56.60
2023-04-17T06:18:56.054Z,58.65
2023-04-17T06:21:22.657Z,53.97
2023-04-17T06:23:49.147Z,48.70
2023-04-17T06:26:16.110Z,57.17
2023-04-17T06:28:42.596Z,56.15
2023-04-17T06:31:09.120Z,59.42
2023-04-17T06:33:35.612Z,51.42
2023-04-17T06:36:03.319Z,55.53
2023-04-17T06:38:29.767Z,53.78
2023-04-17T06:40:56.331Z,58.40
2023-04-17T06:43:22.856Z,55.70
2023-04-17T06:45:49.344Z,49.55
2023-04-17T06:48:16.001Z,43.47
2023-04-17T06:50:42.734Z,57.58
2023-04-17T06:53:09.258Z,53.25
2023-04-17T06:55:35.803Z,56.75
2023-04-17T06:58:02.318Z,45.78
2023-04-17T07:00:28.778Z,52.03
2023-04-17T07:02:55.347Z,52.38
2023-04-17T07:05:21.938Z,55.55
2023-04-17T07:07:48.410Z,56.33
2023-04-17T07:10:15.933Z,56.38
2023-04-17T07:12:42.720Z,49.63
2023-04-17T07:15:09.667Z,52.03
2023-04-17T07:17:36.293Z,50.10
2023-04-17T07:20:05.337Z,53.53
2023-04-17T07:22:31.857Z,51.90
2023-04-17T07:24:58.336Z,50.70
2023-04-17T07:27:24.822Z,49.78
2023-04-17T07:29:54.746Z,56.30
2023-04-17T07:32:22.088Z,51.03
2023-04-17T07:34:48.657Z,49.90
2023-04-17T07:37:15.788Z,53.13
2023-04-17T07:39:42.503Z,53.00
2023-04-17T07:42:09.107Z,50.75
2023-04-17T07:44:35.666Z,49.35
2023-04-17T07:47:02.262Z,50.03
2023-04-17T07:49:28.811Z,54.22
2023-04-17T07:51:55.567Z,49.72
2023-04-17T07:54:22.084Z,50.53
2023-04-17T07:56:49.431Z,53.42
2023-04-17T07:59:19.060Z,51.25
2023-04-17T08:01:45.545Z,47.42
2023-04-17T08:04:12.457Z,49.83
2023-04-17T08:06:39.193Z,50.78
2023-04-17T08:09:07.110Z,48.63
2023-04-17T08:11:42.719Z,41.17
2023-04-17T08:14:17.430Z,50.63
2023-04-17T08:16:43.943Z,47.13
2023-04-17T08:19:10.719Z,51.15
2023-04-17T08:21:37.675Z,46.83
2023-04-17T08:24:04.472Z,44.95
2023-04-17T08:26:31.503Z,46.33
2023-04-17T08:29:01.550Z,53.35
2023-04-17T08:31:28.938Z,46.50
2023-04-17T08:34:06.202Z,42.33
2023-04-17T08:36:40.264Z,40.15
2023-04-17T08:39:07.096Z,41.85
2023-04-17T08:41:43.504Z,44.10
2023-04-17T08:44:10.787Z,43.20
2023-04-17T08:46:38.842Z,38.78
2023-04-17T08:49:05.475Z,35.72
2023-04-17T08:51:32.693Z,36.90
2023-04-17T08:53:59.202Z,34.90
2023-04-17T08:56:26.344Z,33.22
2023-04-17T08:58:52.972Z,32.83
2023-04-17T09:01:20.743Z,32.22
2023-04-17T09:03:49.191Z,32.05
2023-04-17T09:06:16.186Z,29.88
2023-04-17T09:08:56.558Z,32.90
2023-04-17T09:11:23.126Z,35.00
2023-04-17T09:13:49.639Z,32.60
2023-04-17T09:16:16.294Z,28.98
2023-04-17T09:18:43.459Z,26.92
2023-04-17T09:21:10.463Z,25.23
2023-04-17T09:23:58.861Z,29.85
2023-04-17T09:26:27.461Z,28.65
2023-04-17T09:29:12.132Z,27.85
2023-04-17T09:31:41.396Z,26.95
2023-04-17T09:34:11.818Z,26.88
2023-04-17T09:36:41.561Z,26.00
2023-04-17T09:39:20.762Z,26.20
2023-04-17T09:41:47.647Z,22.58
2023-04-17T09:44:26.966Z,20.92
2023-04-17T09:46:54.486Z,24.55
2023-04-17T09:49:42.636Z,27.27
2023-04-17T09:52:09.227Z,29.95
2023-04-17T09:54:39.099Z,26.35
2023-04-17T09:57:10.307Z,26.48
2023-04-17T09:59:45.604Z,26.25
2023-04-17T10:04:45.202Z,25.25
2023-04-17T10:07:16.595Z,24.40
2023-04-17T10:09:45.717Z,24.13
2023-04-17T10:12:15.379Z,29.15
2023-04-17T10:14:46.969Z,25.02
2023-04-17T10:17:34.299Z,26.85
2023-04-17T10:20:20.024Z,24.83
2023-04-17T10:22:56.997Z,22.88
2023-04-17T10:25:24.443Z,24.15
2023-04-17T10:27:54.372Z,25.55
2023-04-17T10:30:26.262Z,24.27
2023-04-17T10:33:20.494Z,22.75
2023-04-17T10:35:47.231Z,23.67
2023-04-17T10:38:13.795Z,21.88
2023-04-17T10:40:43.880Z,26.73
2023-04-17T10:43:11.176Z,24.17
2023-04-17T10:45:56.847Z,20.38
2023-04-17T10:48:41.679Z,22.63
2023-04-17T10:51:23.219Z,24.80
2023-04-17T10:54:03.711Z,21.98
2023-04-17T10:56:40.045Z,19.50
2023-04-17T10:59:08.768Z,21.70
2023-04-17T11:01:48.598Z,21.48
2023-04-17T11:04:28.174Z,21.40
2023-04-17T11:06:55.785Z,23.08
2023-04-17T11:09:24.344Z,20.20
2023-04-17T11:11:51.177Z,21.75
2023-04-17T11:14:19.739Z,20.75
2023-04-17T11:16:47.999Z,19.92
2023-04-17T11:19:23.211Z,22.15
2023-04-17T11:24:27.431Z,21.65
2023-04-17T11:26:56.491Z,21.55
2023-04-17T11:29:24.270Z,22.52
2023-04-17T11:31:54.634Z,22.33
2023-04-17T11:34:21.929Z,19.17
2023-04-17T11:36:52.456Z,21.80
2023-04-17T11:39:20.116Z,18.35
2023-04-17T11:41:46.829Z,18.02
2023-04-17T11:44:14.390Z,18.98
2023-04-17T11:46:41.246Z,16.50
2023-04-17T11:49:08.373Z,19.50
2023-04-17T11:51:35.032Z,17.90
2023-04-17T11:54:01.534Z,18.58
2023-04-17T11:56:31.078Z,16.90
2023-04-17T11:58:59.108Z,20.27
2023-04-17T12:01:26.829Z,19.27
2023-04-17T12:03:54.881Z,23.58
2023-04-17T12:06:22.081Z,19.23
2023-04-17T12:08:51.136Z,24.13
2023-04-17T12:11:26.101Z,18.45
2023-04-17T12:13:53.454Z,17.48
2023-04-17T12:16:20.266Z,19.33
2023-04-17T12:18:46.844Z,19.45
2023-04-17T12:21:14.083Z,19.25
2023-04-17T12:23:41.416Z,22.02
2023-04-17T12:26:08.818Z,22.77
2023-04-17T12:28:36.295Z,20.90
2023-04-17T12:31:04.510Z,20.25
2023-04-17T12:33:32.075Z,19.95
2023-04-17T12:36:00.333Z,20.58
2023-04-17T12:38:26.922Z,22.13
2023-04-17T12:40:53.471Z,19.48
2023-04-17T12:43:19.937Z,20.30
2023-04-17T12:45:46.673Z,19.42
2023-04-17T12:48:14.529Z,19.40
2023-04-17T12:50:44.710Z,19.38
2023-04-17T12:53:13.276Z,20.58
2023-04-17T12:55:41.630Z,17.40
2023-04-17T12:58:11.045Z,14.85
2023-04-17T13:00:39.152Z,18.98
2023-04-17T13:03:06.081Z,16.10
2023-04-17T13:05:32.719Z,19.20
2023-04-17T13:07:59.385Z,18.38
2023-04-17T13:10:26.105Z,17.67
2023-04-17T13:12:52.815Z,16.98
2023-04-17T13:15:19.455Z,17.25
2023-04-17T13:17:46.535Z,17.45
2023-04-17T13:20:13.240Z,17.00
2023-04-17T13:22:39.861Z,16.95
2023-04-17T13:25:07.045Z,19.63
2023-04-17T13:27:33.538Z,16.50
2023-04-17T13:29:59.998Z,19.88
2023-04-17T13:32:26.506Z,16.77
2023-04-17T13:34:53.074Z,19.48
2023-04-17T13:37:20.562Z,17.17
2023-04-17T13:39:47.062Z,17.02
2023-04-17T13:42:15.982Z,19.35
2023-04-17T13:44:42.540Z,17.98
2023-04-17T13:47:09.122Z,20.70
2023-04-17T13:49:35.794Z,16.85
2023-04-17T13:52:03.344Z,15.20
2023-04-17T13:54:29.904Z,18.23
2023-04-17T13:56:57.400Z,19.70
2023-04-17T13:59:24.183Z,18.08
2023-04-17T14:01:50.900Z,17.92
2023-04-17T14:04:17.688Z,16.83
2023-04-17T14:06:46.915Z,16.05
2023-04-17T14:09:13.663Z,18.77
2023-04-17T14:11:41.026Z,18.30
2023-04-17T14:14:07.483Z,17.75
2023-04-17T14:16:34.112Z,19.17
2023-04-17T14:19:13.405Z,17.45
2023-04-17T14:21:41.125Z,17.80
2023-04-17T14:24:07.675Z,18.92
2023-04-17T14:26:34.161Z,18.13
2023-04-17T14:29:00.930Z,13.77
2023-04-17T14:31:27.498Z,17.95
2023-04-17T14:33:54.488Z,20.30
2023-04-17T14:36:20.981Z,15.48
2023-04-17T14:38:51.012Z,19.13
2023-04-17T14:41:17.739Z,16.88
2023-04-17T14:43:44.827Z,15.93
2023-04-17T14:46:11.979Z,17.77
2023-04-17T14:48:54.047Z,19.27
2023-04-17T14:51:22.417Z,18.67
2023-04-17T14:53:48.904Z,17.83
2023-04-17T14:56:15.899Z,16.88
2023-04-17T14:58:43.196Z,19.10
2023-04-17T15:01:09.740Z,15.43
2023-04-17T15:03:36.337Z,19.95
2023-04-17T15:06:03.477Z,18.60
2023-04-17T15:08:31.231Z,14.77
2023-04-17T15:10:58.710Z,16.98
2023-04-17T15:13:25.352Z,19.15
2023-04-17T15:15:51.815Z,19.75
2023-04-17T15:18:18.295Z,18.30
2023-04-17T15:20:44.839Z,18.15
2023-04-17T15:23:11.346Z,16.65
2023-04-17T15:25:37.775Z,17.70
2023-04-17T15:28:04.421Z,15.85
2023-04-17T15:30:30.924Z,17.50
2023-04-17T15:32:57.402Z,21.08
2023-04-17T15:35:23.927Z,18.65
2023-04-17T15:37:50.427Z,16.60
2023-04-17T15:40:16.870Z,18.63
2023-04-17T15:42:43.669Z,20.08
2023-04-17T15:45:10.697Z,20.38
2023-04-17T15:47:37.230Z,18.30
2023-04-17T15:50:03.955Z,15.75
2023-04-17T15:52:30.421Z,17.70
2023-04-17T15:54:56.904Z,21.10
2023-04-17T15:57:23.488Z,20.75
2023-04-17T15:59:50.201Z,19.77
2023-04-17T16:02:16.783Z,18.63
2023-04-17T16:04:43.805Z,26.95
2023-04-17T16:07:11.946Z,20.05
2023-04-17T16:09:39.757Z,19.20
2023-04-17T16:12:10.289Z,21.35
2023-04-17T16:14:37.899Z,22.88
2023-04-17T16:17:04.649Z,17.83
2023-04-17T16:19:41.439Z,18.05
2023-04-17T16:22:07.856Z,19.08
2023-04-17T16:24:34.333Z,23.67
2023-04-17T16:27:01.145Z,17.40
2023-04-17T16:29:27.766Z,16.20
2023-04-17T16:31:55.053Z,24.05
2023-04-17T16:34:22.293Z,18.27
2023-04-17T16:36:49.571Z,17.67
2023-04-17T16:39:16.178Z,18.25
2023-04-17T16:41:43.265Z,16.45
2023-04-17T16:44:09.766Z,18.88
2023-04-17T16:46:52.094Z,19.10
2023-04-17T16:49:22.746Z,21.73
2023-04-17T16:51:51.486Z,22.75
2023-04-17T16:54:19.388Z,17.20
2023-04-17T16:56:51.050Z,15.90
2023-04-17T16:59:17.522Z,21.23
2023-04-17T17:01:46.970Z,19.35
2023-04-17T17:04:13.522Z,18.48
2023-04-17T17:06:39.980Z,19.70
2023-04-17T17:09:06.660Z,19.60
2023-04-17T17:11:33.284Z,19.65
2023-04-17T17:13:59.772Z,18.50
2023-04-17T17:16:26.327Z,21.75
2023-04-17T17:18:52.845Z,19.77
2023-04-17T17:21:19.339Z,22.17
2023-04-17T17:23:46.036Z,21.10
2023-04-17T17:26:12.559Z,21.70
2023-04-17T17:28:38.980Z,22.30
2023-04-17T17:31:10.044Z,21.20
2023-04-17T17:33:36.770Z,25.63
2023-04-17T17:36:03.752Z,21.30
2023-04-17T17:38:32.401Z,20.48
2023-04-17T17:40:59.161Z,23.13
2023-04-17T17:43:28.036Z,19.30
2023-04-17T17:45:54.507Z,20.30
2023-04-17T17:48:21.219Z,24.38
2023-04-17T17:50:48.004Z,20.02
2023-04-17T17:53:16.903Z,20.60
2023-04-17T17:55:50.588Z,21.90
2023-04-17T17:58:17.059Z,21.95
2023-04-17T18:00:43.889Z,21.88
2023-04-17T18:03:10.608Z,22.60
2023-04-17T18:05:37.196Z,20.70
2023-04-17T18:08:03.670Z,21.02
2023-04-17T18:10:30.171Z,18.88
2023-04-17T18:12:56.610Z,23.83
2023-04-17T18:15:23.034Z,23.65
2023-04-17T18:17:49.817Z,21.52
2023-04-17T18:20:16.377Z,18.70
2023-04-17T18:22:43.032Z,21.92
2023-04-17T18:25:10.127Z,22.55
2023-04-17T18:27:36.652Z,23.33
2023-04-17T18:30:05.367Z,22.10
2023-04-17T18:32:32.262Z,20.70
2023-04-17T18:34:59.336Z,20.30
2023-04-17T18:37:25.866Z,20.98
2023-04-17T18:39:52.851Z,22.35
2023-04-17T18:42:20.027Z,19.50
2023-04-17T18:44:46.557Z,20.38
2023-04-17T18:47:13.050Z,21.05
2023-04-17T18:49:39.490Z,21.27
2023-04-17T18:52:05.927Z,23.33
2023-04-17T18:54:32.531Z,24.55
2023-04-17T18:56:58.942Z,21.50
2023-04-17T18:59:27.983Z,20.17
2023-04-17T19:01:54.474Z,20.83
2023-04-17T19:04:21.740Z,21.50
2023-04-17T19:06:48.218Z,23.20
2023-04-17T19:09:14.703Z,22.42
2023-04-17T19:11:41.190Z,24.10
2023-04-17T19:14:07.662Z,22.52
2023-04-17T19:16:34.364Z,23.65
2023-04-17T19:19:01.084Z,24.10
2023-04-17T19:21:28.481Z,19.70
2023-04-17T19:23:55.108Z,25.48
2023-04-17T19:26:21.945Z,19.77
2023-04-17T19:28:48.827Z,23.10
2023-04-17T19:31:15.819Z,24.15
2023-04-17T19:33:42.909Z,25.02
2023-04-17T19:36:09.347Z,22.45
2023-04-17T19:38:35.895Z,27.10
2023-04-17T19:41:14.721Z,24.27
2023-04-17T19:43:42.512Z,24.00
2023-04-17T19:46:09.580Z,24.30
2023-04-17T19:48:36.953Z,23.15
2023-04-17T19:51:08.168Z,27.30
2023-04-17T19:53:36.025Z,21.20
2023-04-17T19:56:04.831Z,25.92
2023-04-17T19:58:33.305Z,21.35
2023-04-17T20:01:00.749Z,23.25
2023-04-17T20:03:28.542Z,25.50
2023-04-17T20:05:57.932Z,26.35
2023-04-17T20:08:25.564Z,28.00
2023-04-17T20:10:52.221Z,24.17
2023-04-17T20:13:18.829Z,24.98
2023-04-17T20:15:45.405Z,23.20
2023-04-17T20:18:12.381Z,24.42
2023-04-17T20:20:39.183Z,24.25
2023-04-17T20:23:06.092Z,25.30
2023-04-17T20:25:32.643Z,24.80
2023-04-17T20:27:59.114Z,23.50
2023-04-17T20:30:25.690Z,23.65
2023-04-17T20:32:52.384Z,21.08
2023-04-17T20:35:20.868Z,24.85
2023-04-17T20:37:47.554Z,22.10
2023-04-17T20:40:14.348Z,23.33
2023-04-17T20:42:42.125Z,20.05
2023-04-17T20:45:09.526Z,22.00
2023-04-17T20:47:37.500Z,21.25
2023-04-17T20:50:05.611Z,22.02
2023-04-17T20:52:32.752Z,23.48
2023-04-17T20:55:00.903Z,24.70
2023-04-17T20:57:28.816Z,20.67
2023-04-17T20:59:55.749Z,24.67
2023-04-17T21:02:22.479Z,20.40
2023-04-17T21:04:49.495Z,23.65
2023-04-17T21:07:16.468Z,24.65
2023-04-17T21:09:43.025Z,22.02
2023-04-17T21:12:09.607Z,23.83
2023-04-17T21:14:39.259Z,23.90
2023-04-17T21:17:06.528Z,20.83
2023-04-17T21:19:35.918Z,24.83
2023-04-17T21:22:02.473Z,21.33
2023-04-17T21:24:29.098Z,21.48
2023-04-17T21:26:58.567Z,26.27
2023-04-17T21:29:28.743Z,20.30
2023-04-17T21:31:56.336Z,21.02
2023-04-17T21:34:24.052Z,23.95
2023-04-17T21:36:52.835Z,14.07
2023-04-17T21:39:19.286Z,21.25
2023-04-17T21:41:45.694Z,18.92
2023-04-17T21:44:12.364Z,23.15
2023-04-17T21:46:39.086Z,23.33
2023-04-17T21:49:05.624Z,23.15
2023-04-17T21:51:32.048Z,20.80
2023-04-17T21:53:58.624Z,22.92
2023-04-17T21:56:25.194Z,22.67
2023-04-17T21:58:51.713Z,20.50
2023-04-17T22:01:18.212Z,18.52
2023-04-17T22:03:44.730Z,23.42
2023-04-17T22:06:11.439Z,20.35
2023-04-17T22:08:37.912Z,20.98
2023-04-17T22:11:05.468Z,23.65
2023-04-17T22:13:32.051Z,20.38
2023-04-17T22:15:58.694Z,18.13
2023-04-17T22:18:27.373Z,17.70
2023-04-17T22:20:53.843Z,21.27
2023-04-17T22:23:20.468Z,19.05
2023-04-17T22:25:47.133Z,23.05
2023-04-17T22:28:13.641Z,16.33
2023-04-17T22:30:40.116Z,21.13
2023-04-17T22:33:06.639Z,16.20
2023-04-17T22:35:33.107Z,16.42
2023-04-17T22:37:59.591Z,23.08
2023-04-17T22:40:26.029Z,26.00
2023-04-17T22:42:52.564Z,21.98
2023-04-17T22:45:19.028Z,19.55
2023-04-17T22:47:45.570Z,18.52
2023-04-17T22:50:14.192Z,18.38
2023-04-17T22:52:40.844Z,22.42
2023-04-17T22:55:07.689Z,18.95
2023-04-17T22:57:34.171Z,15.90
2023-04-17T23:00:00.624Z,20.42
2023-04-17T23:02:27.193Z,19.63
2023-04-17T23:04:53.725Z,24.27
2023-04-17T23:07:20.277Z,20.42
2023-04-17T23:09:46.736Z,19.88
2023-04-17T23:12:13.213Z,21.13
2023-04-17T23:14:39.669Z,17.58
2023-04-17T23:17:06.528Z,18.77
2023-04-17T23:19:33.052Z,18.42
2023-04-17T23:22:01.093Z,17.30
2023-04-17T23:24:28.003Z,22.02
2023-04-17T23:26:55.190Z,20.42
2023-04-17T23:29:21.658Z,16.48
2023-04-17T23:31:48.724Z,17.70
2023-04-17T23:34:15.562Z,18.10
2023-04-17T23:36:42.319Z,19.95
2023-04-17T23:39:09.223Z,17.58
2023-04-17T23:41:35.683Z,19.05
2023-04-17T23:44:03.891Z,18.88
2023-04-17T23:46:30.875Z,24.15
2023-04-17T23:48:57.381Z,20.05
2023-04-17T23:51:23.896Z,18.15
2023-04-17T23:53:50.663Z,18.25
2023-04-17T23:56:18.040Z,20.42
2023-04-17T23:58:44.473Z,19.90
